sensor_id;sensor_type;location;lat;lon;timestamp;P1;durP1;ratioP1;P2;durP2;ratioP2
7289;SDS011;3686;52.678;13.252;2022-07-22T00:01:18;7.73;;;6.00;;
7289;SDS011;3686;52.678;13.252;2022-07-22T00:03:45;6.83;;;6.00;;
7289;SDS011;3686;52.678;13.252;2022-07-22T00:06:11;7.73;;;6.17;;
7289;SDS011;3686;52.678;13.252;2022-07-22T00:08:37;7.97;;;6.57;;
7289;SDS011;3686;52.678;13.252;2022-07-22T00:11:03;8.70;;;6.57;;
7289;SDS011;3686;52.678;13.252;2022-07-22T00:13:29;9.77;;;6.23;;
7289;SDS011;3686;52.678;13.252;2022-07-22T00:15:54;8.93;;;6.30;;
7289;SDS011;3686;52.678;13.252;2022-07-22T00:18:20;7.40;;;5.60;;
7289;SDS011;3686;52.678;13.252;2022-07-22T00:20:46;7.60;;;6.40;;
7289;SDS011;3686;52.678;13.252;2022-07-22T00:23:12;8.43;;;5.77;;
7289;SDS011;3686;52.678;13.252;2022-07-22T00:25:37;7.80;;;6.40;;
7289;SDS011;3686;52.678;13.252;2022-07-22T00:28:03;8.50;;;5.73;;
7289;SDS011;3686;52.678;13.252;2022-07-22T00:30:29;8.70;;;7.20;;
7289;SDS011;3686;52.678;13.252;2022-07-22T00:32:55;7.03;;;6.10;;
7289;SDS011;3686;52.678;13.252;2022-07-22T00:35:21;6.50;;;5.57;;
7289;SDS011;3686;52.678;13.252;2022-07-22T00:37:46;7.67;;;6.90;;
7289;SDS011;3686;52.678;13.252;2022-07-22T00:40:12;11.00;;;5.47;;
7289;SDS011;3686;52.678;13.252;2022-07-22T00:42:38;11.03;;;5.43;;
7289;SDS011;3686;52.678;13.252;2022-07-22T00:45:04;7.87;;;5.73;;
7289;SDS011;3686;52.678;13.252;2022-07-22T00:47:31;8.47;;;6.23;;
7289;SDS011;3686;52.678;13.252;2022-07-22T00:49:57;6.70;;;5.03;;
7289;SDS011;3686;52.678;13.252;2022-07-22T00:52:23;5.67;;;5.07;;
7289;SDS011;3686;52.678;13.252;2022-07-22T00:54:49;5.73;;;5.10;;
7289;SDS011;3686;52.678;13.252;2022-07-22T00:57:15;5.43;;;4.20;;
7289;SDS011;3686;52.678;13.252;2022-07-22T00:59:41;4.87;;;4.37;;
7289;SDS011;3686;52.678;13.252;2022-07-22T01:02:08;5.07;;;4.10;;
7289;SDS011;3686;52.678;13.252;2022-07-22T01:04:34;9.40;;;5.30;;
7289;SDS011;3686;52.678;13.252;2022-07-22T01:07:00;4.40;;;4.00;;
7289;SDS011;3686;52.678;13.252;2022-07-22T01:09:26;7.53;;;4.53;;
7289;SDS011;3686;52.678;13.252;2022-07-22T01:11:51;4.83;;;4.17;;
7289;SDS011;3686;52.678;13.252;2022-07-22T01:14:17;4.90;;;4.30;;
7289;SDS011;3686;52.678;13.252;2022-07-22T01:16:43;4.00;;;3.60;;
7289;SDS011;3686;52.678;13.252;2022-07-22T01:19:09;8.07;;;4.50;;
7289;SDS011;3686;52.678;13.252;2022-07-22T01:21:35;4.10;;;3.70;;
7289;SDS011;3686;52.678;13.252;2022-07-22T01:24:00;8.73;;;3.97;;
7289;SDS011;3686;52.678;13.252;2022-07-22T01:26:27;4.63;;;4.20;;
7289;SDS011;3686;52.678;13.252;2022-07-22T01:28:52;4.17;;;3.77;;
7289;SDS011;3686;52.678;13.252;2022-07-22T01:31:18;7.47;;;3.60;;
7289;SDS011;3686;52.678;13.252;2022-07-22T01:33:44;6.67;;;4.37;;
7289;SDS011;3686;52.678;13.252;2022-07-22T01:36:10;5.90;;;4.50;;
7289;SDS011;3686;52.678;13.252;2022-07-22T01:38:36;4.97;;;4.07;;
7289;SDS011;3686;52.678;13.252;2022-07-22T01:41:02;4.47;;;4.03;;
7289;SDS011;3686;52.678;13.252;2022-07-22T01:43:28;5.60;;;4.00;;
7289;SDS011;3686;52.678;13.252;2022-07-22T01:45:54;5.63;;;3.87;;
7289;SDS011;3686;52.678;13.252;2022-07-22T01:48:20;6.40;;;3.70;;
7289;SDS011;3686;52.678;13.252;2022-07-22T01:50:46;4.40;;;3.90;;
7289;SDS011;3686;52.678;13.252;2022-07-22T01:53:12;4.40;;;4.00;;
7289;SDS011;3686;52.678;13.252;2022-07-22T01:55:38;7.20;;;4.30;;
7289;SDS011;3686;52.678;13.252;2022-07-22T01:58:04;4.83;;;3.83;;
7289;SDS011;3686;52.678;13.252;2022-07-22T02:00:30;3.47;;;3.17;;
7289;SDS011;3686;52.678;13.252;2022-07-22T02:02:57;4.67;;;3.60;;
7289;SDS011;3686;52.678;13.252;2022-07-22T02:05:23;6.50;;;3.83;;
7289;SDS011;3686;52.678;13.252;2022-07-22T02:07:49;4.70;;;3.27;;
7289;SDS011;3686;52.678;13.252;2022-07-22T02:10:14;4.47;;;4.00;;
7289;SDS011;3686;52.678;13.252;2022-07-22T02:12:40;3.50;;;3.10;;
7289;SDS011;3686;52.678;13.252;2022-07-22T02:15:06;6.97;;;3.80;;
7289;SDS011;3686;52.678;13.252;2022-07-22T02:17:33;4.60;;;4.17;;
7289;SDS011;3686;52.678;13.252;2022-07-22T02:20:00;5.63;;;4.00;;
7289;SDS011;3686;52.678;13.252;2022-07-22T02:22:26;5.20;;;3.43;;
7289;SDS011;3686;52.678;13.252;2022-07-22T02:24:52;5.57;;;3.60;;
7289;SDS011;3686;52.678;13.252;2022-07-22T02:27:17;5.83;;;3.40;;
7289;SDS011;3686;52.678;13.252;2022-07-22T02:29:43;4.10;;;3.47;;
7289;SDS011;3686;52.678;13.252;2022-07-22T02:32:09;4.83;;;3.77;;
7289;SDS011;3686;52.678;13.252;2022-07-22T02:34:34;5.30;;;3.40;;
7289;SDS011;3686;52.678;13.252;2022-07-22T02:37:00;5.03;;;4.27;;
7289;SDS011;3686;52.678;13.252;2022-07-22T02:39:26;5.50;;;3.40;;
7289;SDS011;3686;52.678;13.252;2022-07-22T02:41:52;3.67;;;3.20;;
7289;SDS011;3686;52.678;13.252;2022-07-22T02:44:17;7.40;;;3.93;;
7289;SDS011;3686;52.678;13.252;2022-07-22T02:46:43;3.57;;;3.27;;
7289;SDS011;3686;52.678;13.252;2022-07-22T02:49:09;5.57;;;4.00;;
7289;SDS011;3686;52.678;13.252;2022-07-22T02:51:34;5.40;;;3.93;;
7289;SDS011;3686;52.678;13.252;2022-07-22T02:54:00;5.30;;;3.77;;
7289;SDS011;3686;52.678;13.252;2022-07-22T02:56:26;3.80;;;3.50;;
7289;SDS011;3686;52.678;13.252;2022-07-22T02:58:51;4.57;;;4.00;;
7289;SDS011;3686;52.678;13.252;2022-07-22T03:01:18;3.90;;;3.50;;
7289;SDS011;3686;52.678;13.252;2022-07-22T03:03:44;5.77;;;3.60;;
7289;SDS011;3686;52.678;13.252;2022-07-22T03:06:11;4.53;;;3.93;;
7289;SDS011;3686;52.678;13.252;2022-07-22T03:08:37;5.33;;;3.47;;
7289;SDS011;3686;52.678;13.252;2022-07-22T03:11:03;4.20;;;3.77;;
7289;SDS011;3686;52.678;13.252;2022-07-22T03:13:30;6.70;;;4.07;;
7289;SDS011;3686;52.678;13.252;2022-07-22T03:15:55;3.70;;;3.33;;
7289;SDS011;3686;52.678;13.252;2022-07-22T03:18:21;4.50;;;3.77;;
7289;SDS011;3686;52.678;13.252;2022-07-22T03:20:47;4.23;;;3.80;;
7289;SDS011;3686;52.678;13.252;2022-07-22T03:23:13;6.80;;;3.80;;
7289;SDS011;3686;52.678;13.252;2022-07-22T03:25:39;4.60;;;3.67;;
7289;SDS011;3686;52.678;13.252;2022-07-22T03:28:05;4.53;;;3.60;;
7289;SDS011;3686;52.678;13.252;2022-07-22T03:30:31;4.97;;;4.07;;
7289;SDS011;3686;52.678;13.252;2022-07-22T03:32:57;6.00;;;4.30;;
7289;SDS011;3686;52.678;13.252;2022-07-22T03:35:23;4.80;;;3.87;;
7289;SDS011;3686;52.678;13.252;2022-07-22T03:37:49;6.00;;;4.20;;
7289;SDS011;3686;52.678;13.252;2022-07-22T03:40:15;4.40;;;3.80;;
7289;SDS011;3686;52.678;13.252;2022-07-22T03:42:41;6.60;;;4.80;;
7289;SDS011;3686;52.678;13.252;2022-07-22T03:45:07;4.93;;;4.20;;
7289;SDS011;3686;52.678;13.252;2022-07-22T03:47:33;5.63;;;4.00;;
7289;SDS011;3686;52.678;13.252;2022-07-22T03:49:59;5.20;;;4.30;;
7289;SDS011;3686;52.678;13.252;2022-07-22T03:52:26;5.40;;;3.80;;
7289;SDS011;3686;52.678;13.252;2022-07-22T03:54:53;4.40;;;4.00;;
7289;SDS011;3686;52.678;13.252;2022-07-22T03:57:19;6.37;;;4.20;;
7289;SDS011;3686;52.678;13.252;2022-07-22T03:59:45;4.50;;;4.10;;
7289;SDS011;3686;52.678;13.252;2022-07-22T04:02:11;5.00;;;3.90;;
7289;SDS011;3686;52.678;13.252;2022-07-22T04:04:37;4.27;;;3.87;;
7289;SDS011;3686;52.678;13.252;2022-07-22T04:07:02;5.50;;;4.63;;
7289;SDS011;3686;52.678;13.252;2022-07-22T04:09:28;8.67;;;4.43;;
7289;SDS011;3686;52.678;13.252;2022-07-22T04:11:54;4.53;;;4.13;;
7289;SDS011;3686;52.678;13.252;2022-07-22T04:14:20;4.83;;;4.30;;
7289;SDS011;3686;52.678;13.252;2022-07-22T04:16:46;5.57;;;4.07;;
7289;SDS011;3686;52.678;13.252;2022-07-22T04:19:11;5.70;;;3.73;;
7289;SDS011;3686;52.678;13.252;2022-07-22T04:21:38;7.03;;;4.73;;
7289;SDS011;3686;52.678;13.252;2022-07-22T04:24:03;5.30;;;4.53;;
7289;SDS011;3686;52.678;13.252;2022-07-22T04:26:30;6.90;;;5.10;;
7289;SDS011;3686;52.678;13.252;2022-07-22T04:28:56;6.33;;;4.90;;
7289;SDS011;3686;52.678;13.252;2022-07-22T04:31:21;5.30;;;4.80;;
7289;SDS011;3686;52.678;13.252;2022-07-22T04:33:47;5.47;;;4.50;;
7289;SDS011;3686;52.678;13.252;2022-07-22T04:36:13;5.83;;;4.23;;
7289;SDS011;3686;52.678;13.252;2022-07-22T04:38:38;8.43;;;4.83;;
7289;SDS011;3686;52.678;13.252;2022-07-22T04:41:04;6.50;;;4.70;;
7289;SDS011;3686;52.678;13.252;2022-07-22T04:43:30;6.17;;;4.97;;
7289;SDS011;3686;52.678;13.252;2022-07-22T04:45:56;6.47;;;5.20;;
7289;SDS011;3686;52.678;13.252;2022-07-22T04:48:22;7.20;;;5.57;;
7289;SDS011;3686;52.678;13.252;2022-07-22T04:50:48;7.37;;;5.37;;
7289;SDS011;3686;52.678;13.252;2022-07-22T04:53:13;6.50;;;5.90;;
7289;SDS011;3686;52.678;13.252;2022-07-22T04:55:39;8.83;;;5.57;;
7289;SDS011;3686;52.678;13.252;2022-07-22T04:58:05;10.37;;;5.97;;
7289;SDS011;3686;52.678;13.252;2022-07-22T05:00:30;7.80;;;6.30;;
7289;SDS011;3686;52.678;13.252;2022-07-22T05:02:56;8.90;;;6.70;;
7289;SDS011;3686;52.678;13.252;2022-07-22T05:05:22;8.70;;;5.87;;
7289;SDS011;3686;52.678;13.252;2022-07-22T05:07:49;8.97;;;6.40;;
7289;SDS011;3686;52.678;13.252;2022-07-22T05:10:15;7.57;;;5.50;;
7289;SDS011;3686;52.678;13.252;2022-07-22T05:12:41;7.07;;;5.43;;
7289;SDS011;3686;52.678;13.252;2022-07-22T05:15:08;7.83;;;5.83;;
7289;SDS011;3686;52.678;13.252;2022-07-22T05:17:33;8.97;;;6.80;;
7289;SDS011;3686;52.678;13.252;2022-07-22T05:20:01;8.50;;;6.03;;
7289;SDS011;3686;52.678;13.252;2022-07-22T05:22:28;8.03;;;5.83;;
7289;SDS011;3686;52.678;13.252;2022-07-22T05:24:53;8.37;;;6.67;;
7289;SDS011;3686;52.678;13.252;2022-07-22T05:27:19;8.37;;;6.50;;
7289;SDS011;3686;52.678;13.252;2022-07-22T05:29:45;11.60;;;6.50;;
7289;SDS011;3686;52.678;13.252;2022-07-22T05:32:10;6.33;;;5.30;;
7289;SDS011;3686;52.678;13.252;2022-07-22T05:34:36;10.10;;;7.27;;
7289;SDS011;3686;52.678;13.252;2022-07-22T05:37:02;8.70;;;6.47;;
7289;SDS011;3686;52.678;13.252;2022-07-22T05:39:27;11.43;;;8.10;;
7289;SDS011;3686;52.678;13.252;2022-07-22T05:41:53;7.83;;;6.53;;
7289;SDS011;3686;52.678;13.252;2022-07-22T05:44:18;8.07;;;6.07;;
7289;SDS011;3686;52.678;13.252;2022-07-22T05:46:44;11.00;;;7.57;;
7289;SDS011;3686;52.678;13.252;2022-07-22T05:49:10;8.67;;;6.77;;
7289;SDS011;3686;52.678;13.252;2022-07-22T05:51:35;16.60;;;7.30;;
7289;SDS011;3686;52.678;13.252;2022-07-22T05:54:01;8.60;;;5.80;;
7289;SDS011;3686;52.678;13.252;2022-07-22T05:56:29;9.13;;;6.80;;
7289;SDS011;3686;52.678;13.252;2022-07-22T05:58:55;8.70;;;7.10;;
7289;SDS011;3686;52.678;13.252;2022-07-22T06:01:21;9.03;;;6.70;;
7289;SDS011;3686;52.678;13.252;2022-07-22T06:03:48;9.40;;;7.33;;
7289;SDS011;3686;52.678;13.252;2022-07-22T06:06:16;7.00;;;6.30;;
7289;SDS011;3686;52.678;13.252;2022-07-22T06:08:42;9.27;;;6.73;;
7289;SDS011;3686;52.678;13.252;2022-07-22T06:11:08;7.60;;;5.97;;
7289;SDS011;3686;52.678;13.252;2022-07-22T06:13:34;7.03;;;6.27;;
7289;SDS011;3686;52.678;13.252;2022-07-22T06:15:59;9.40;;;6.30;;
7289;SDS011;3686;52.678;13.252;2022-07-22T06:18:25;7.27;;;5.90;;
7289;SDS011;3686;52.678;13.252;2022-07-22T06:20:51;10.33;;;6.97;;
7289;SDS011;3686;52.678;13.252;2022-07-22T06:23:17;9.80;;;6.80;;
7289;SDS011;3686;52.678;13.252;2022-07-22T06:25:42;10.07;;;7.40;;
7289;SDS011;3686;52.678;13.252;2022-07-22T06:28:09;9.60;;;6.50;;
7289;SDS011;3686;52.678;13.252;2022-07-22T06:30:35;7.30;;;5.30;;
7289;SDS011;3686;52.678;13.252;2022-07-22T06:33:01;8.07;;;6.30;;
7289;SDS011;3686;52.678;13.252;2022-07-22T06:35:26;8.10;;;6.13;;
7289;SDS011;3686;52.678;13.252;2022-07-22T06:37:52;10.33;;;7.60;;
7289;SDS011;3686;52.678;13.252;2022-07-22T06:40:18;7.67;;;6.60;;
7289;SDS011;3686;52.678;13.252;2022-07-22T06:42:44;12.23;;;6.30;;
7289;SDS011;3686;52.678;13.252;2022-07-22T06:45:10;11.13;;;7.17;;
7289;SDS011;3686;52.678;13.252;2022-07-22T06:47:35;10.13;;;7.17;;
7289;SDS011;3686;52.678;13.252;2022-07-22T06:50:02;8.93;;;6.40;;
7289;SDS011;3686;52.678;13.252;2022-07-22T06:52:29;7.43;;;6.53;;
7289;SDS011;3686;52.678;13.252;2022-07-22T06:54:54;8.83;;;6.40;;
7289;SDS011;3686;52.678;13.252;2022-07-22T06:57:20;8.60;;;6.50;;
7289;SDS011;3686;52.678;13.252;2022-07-22T06:59:45;7.20;;;5.93;;
7289;SDS011;3686;52.678;13.252;2022-07-22T07:02:11;10.33;;;6.30;;
7289;SDS011;3686;52.678;13.252;2022-07-22T07:04:37;9.20;;;6.43;;
7289;SDS011;3686;52.678;13.252;2022-07-22T07:07:02;5.60;;;5.03;;
7289;SDS011;3686;52.678;13.252;2022-07-22T07:09:28;9.80;;;5.37;;
7289;SDS011;3686;52.678;13.252;2022-07-22T07:11:54;7.03;;;5.50;;
7289;SDS011;3686;52.678;13.252;2022-07-22T07:14:20;6.07;;;5.47;;
7289;SDS011;3686;52.678;13.252;2022-07-22T07:16:45;5.43;;;4.73;;
7289;SDS011;3686;52.678;13.252;2022-07-22T07:19:11;6.70;;;5.00;;
7289;SDS011;3686;52.678;13.252;2022-07-22T07:21:37;5.10;;;4.60;;
7289;SDS011;3686;52.678;13.252;2022-07-22T07:24:02;5.43;;;4.80;;
7289;SDS011;3686;52.678;13.252;2022-07-22T07:26:28;5.23;;;4.30;;
7289;SDS011;3686;52.678;13.252;2022-07-22T07:28:54;5.77;;;4.10;;
7289;SDS011;3686;52.678;13.252;2022-07-22T07:31:19;5.47;;;4.50;;
7289;SDS011;3686;52.678;13.252;2022-07-22T07:33:45;5.83;;;4.33;;
7289;SDS011;3686;52.678;13.252;2022-07-22T07:36:11;6.20;;;5.33;;
7289;SDS011;3686;52.678;13.252;2022-07-22T07:38:36;8.33;;;5.20;;
7289;SDS011;3686;52.678;13.252;2022-07-22T07:41:02;5.20;;;4.70;;
7289;SDS011;3686;52.678;13.252;2022-07-22T07:43:28;6.23;;;4.50;;
7289;SDS011;3686;52.678;13.252;2022-07-22T07:45:53;5.93;;;4.70;;
7289;SDS011;3686;52.678;13.252;2022-07-22T07:48:19;5.57;;;5.03;;
7289;SDS011;3686;52.678;13.252;2022-07-22T07:50:45;5.33;;;4.47;;
7289;SDS011;3686;52.678;13.252;2022-07-22T07:53:14;5.33;;;4.83;;
7289;SDS011;3686;52.678;13.252;2022-07-22T07:55:41;4.57;;;4.17;;
7289;SDS011;3686;52.678;13.252;2022-07-22T07:58:07;4.43;;;3.93;;
7289;SDS011;3686;52.678;13.252;2022-07-22T08:00:33;4.67;;;4.00;;
7289;SDS011;3686;52.678;13.252;2022-07-22T08:03:00;4.07;;;3.57;;
7289;SDS011;3686;52.678;13.252;2022-07-22T08:05:27;6.80;;;4.50;;
7289;SDS011;3686;52.678;13.252;2022-07-22T08:07:53;4.73;;;4.23;;
7289;SDS011;3686;52.678;13.252;2022-07-22T08:10:19;4.17;;;3.80;;
7289;SDS011;3686;52.678;13.252;2022-07-22T08:12:45;4.97;;;4.10;;
7289;SDS011;3686;52.678;13.252;2022-07-22T08:15:11;4.37;;;3.97;;
7289;SDS011;3686;52.678;13.252;2022-07-22T08:17:37;5.87;;;4.47;;
7289;SDS011;3686;52.678;13.252;2022-07-22T08:20:03;5.20;;;4.67;;
7289;SDS011;3686;52.678;13.252;2022-07-22T08:22:30;5.33;;;4.53;;
7289;SDS011;3686;52.678;13.252;2022-07-22T08:24:56;4.30;;;3.90;;
7289;SDS011;3686;52.678;13.252;2022-07-22T08:27:21;4.30;;;3.90;;
7289;SDS011;3686;52.678;13.252;2022-07-22T08:29:47;18.17;;;4.80;;
7289;SDS011;3686;52.678;13.252;2022-07-22T08:32:13;7.13;;;4.10;;
7289;SDS011;3686;52.678;13.252;2022-07-22T08:34:39;4.93;;;4.40;;
7289;SDS011;3686;52.678;13.252;2022-07-22T08:37:04;6.03;;;4.70;;
7289;SDS011;3686;52.678;13.252;2022-07-22T08:39:30;5.50;;;4.43;;
7289;SDS011;3686;52.678;13.252;2022-07-22T08:41:56;5.27;;;4.10;;
7289;SDS011;3686;52.678;13.252;2022-07-22T08:44:22;4.80;;;4.30;;
7289;SDS011;3686;52.678;13.252;2022-07-22T08:46:49;4.90;;;4.40;;
7289;SDS011;3686;52.678;13.252;2022-07-22T08:49:15;6.53;;;4.43;;
7289;SDS011;3686;52.678;13.252;2022-07-22T08:51:41;4.07;;;3.77;;
7289;SDS011;3686;52.678;13.252;2022-07-22T08:54:07;4.47;;;4.07;;
7289;SDS011;3686;52.678;13.252;2022-07-22T08:56:33;4.07;;;3.40;;
7289;SDS011;3686;52.678;13.252;2022-07-22T08:58:59;4.10;;;3.67;;
7289;SDS011;3686;52.678;13.252;2022-07-22T09:01:25;3.40;;;3.10;;
7289;SDS011;3686;52.678;13.252;2022-07-22T09:03:54;6.70;;;3.93;;
7289;SDS011;3686;52.678;13.252;2022-07-22T09:06:22;5.53;;;3.70;;
7289;SDS011;3686;52.678;13.252;2022-07-22T09:08:50;4.50;;;3.30;;
7289;SDS011;3686;52.678;13.252;2022-07-22T09:11:22;6.60;;;3.40;;
7289;SDS011;3686;52.678;13.252;2022-07-22T09:13:49;2.90;;;2.70;;
7289;SDS011;3686;52.678;13.252;2022-07-22T09:16:15;4.23;;;3.73;;
7289;SDS011;3686;52.678;13.252;2022-07-22T09:18:51;5.57;;;2.77;;
7289;SDS011;3686;52.678;13.252;2022-07-22T09:21:20;4.70;;;3.97;;
7289;SDS011;3686;52.678;13.252;2022-07-22T09:23:46;5.07;;;4.10;;
7289;SDS011;3686;52.678;13.252;2022-07-22T09:28:57;2.10;;;2.00;;
7289;SDS011;3686;52.678;13.252;2022-07-22T09:31:28;1.83;;;1.73;;
7289;SDS011;3686;52.678;13.252;2022-07-22T09:33:56;1.90;;;1.70;;
7289;SDS011;3686;52.678;13.252;2022-07-22T09:36:22;1.60;;;1.50;;
7289;SDS011;3686;52.678;13.252;2022-07-22T09:38:48;1.90;;;1.40;;
7289;SDS011;3686;52.678;13.252;2022-07-22T09:41:15;1.50;;;1.40;;
7289;SDS011;3686;52.678;13.252;2022-07-22T09:43:42;1.40;;;1.30;;
7289;SDS011;3686;52.678;13.252;2022-07-22T09:46:08;1.53;;;1.43;;
7289;SDS011;3686;52.678;13.252;2022-07-22T09:48:34;1.83;;;1.60;;
7289;SDS011;3686;52.678;13.252;2022-07-22T09:51:02;1.63;;;1.53;;
7289;SDS011;3686;52.678;13.252;2022-07-22T09:53:29;1.70;;;1.60;;
7289;SDS011;3686;52.678;13.252;2022-07-22T09:55:56;2.10;;;2.00;;
7289;SDS011;3686;52.678;13.252;2022-07-22T09:58:22;2.10;;;1.73;;
7289;SDS011;3686;52.678;13.252;2022-07-22T10:00:50;2.57;;;2.37;;
7289;SDS011;3686;52.678;13.252;2022-07-22T10:03:18;2.67;;;2.20;;
7289;SDS011;3686;52.678;13.252;2022-07-22T10:05:55;2.33;;;2.13;;
7289;SDS011;3686;52.678;13.252;2022-07-22T10:08:21;2.50;;;2.30;;
7289;SDS011;3686;52.678;13.252;2022-07-22T10:10:50;3.20;;;2.90;;
7289;SDS011;3686;52.678;13.252;2022-07-22T10:13:17;2.40;;;2.17;;
7289;SDS011;3686;52.678;13.252;2022-07-22T10:15:44;3.27;;;2.80;;
7289;SDS011;3686;52.678;13.252;2022-07-22T10:18:15;3.97;;;2.80;;
7289;SDS011;3686;52.678;13.252;2022-07-22T10:20:43;3.77;;;3.37;;
7289;SDS011;3686;52.678;13.252;2022-07-22T10:23:09;3.53;;;3.20;;
7289;SDS011;3686;52.678;13.252;2022-07-22T10:25:53;3.60;;;3.13;;
7289;SDS011;3686;52.678;13.252;2022-07-22T10:28:36;3.73;;;3.40;;
7289;SDS011;3686;52.678;13.252;2022-07-22T10:31:22;5.70;;;4.73;;
7289;SDS011;3686;52.678;13.252;2022-07-22T10:33:50;5.97;;;4.53;;
7289;SDS011;3686;52.678;13.252;2022-07-22T10:36:36;5.93;;;4.63;;
7289;SDS011;3686;52.678;13.252;2022-07-22T10:39:11;7.43;;;5.00;;
7289;SDS011;3686;52.678;13.252;2022-07-22T10:41:42;4.70;;;4.00;;
7289;SDS011;3686;52.678;13.252;2022-07-22T10:44:10;5.73;;;4.80;;
7289;SDS011;3686;52.678;13.252;2022-07-22T10:46:53;5.37;;;4.50;;
7289;SDS011;3686;52.678;13.252;2022-07-22T10:49:21;4.97;;;4.47;;
7289;SDS011;3686;52.678;13.252;2022-07-22T10:55:10;5.83;;;3.87;;
7289;SDS011;3686;52.678;13.252;2022-07-22T10:57:39;5.60;;;4.63;;
7289;SDS011;3686;52.678;13.252;2022-07-22T11:00:05;14.20;;;4.13;;
7289;SDS011;3686;52.678;13.252;2022-07-22T11:02:33;5.33;;;3.90;;
7289;SDS011;3686;52.678;13.252;2022-07-22T11:05:00;4.10;;;3.67;;
7289;SDS011;3686;52.678;13.252;2022-07-22T11:07:26;3.87;;;3.40;;
7289;SDS011;3686;52.678;13.252;2022-07-22T11:09:54;4.73;;;3.50;;
7289;SDS011;3686;52.678;13.252;2022-07-22T11:12:34;3.73;;;3.30;;
7289;SDS011;3686;52.678;13.252;2022-07-22T11:15:03;3.73;;;3.40;;
7289;SDS011;3686;52.678;13.252;2022-07-22T11:17:31;5.70;;;3.60;;
7289;SDS011;3686;52.678;13.252;2022-07-22T11:19:59;3.30;;;2.87;;
7289;SDS011;3686;52.678;13.252;2022-07-22T11:22:26;4.13;;;3.30;;
7289;SDS011;3686;52.678;13.252;2022-07-22T11:24:52;3.53;;;3.23;;
7289;SDS011;3686;52.678;13.252;2022-07-22T11:27:18;3.20;;;2.93;;
7289;SDS011;3686;52.678;13.252;2022-07-22T11:29:50;3.40;;;3.10;;
7289;SDS011;3686;52.678;13.252;2022-07-22T11:32:19;4.07;;;3.40;;
7289;SDS011;3686;52.678;13.252;2022-07-22T11:34:48;3.53;;;3.23;;
7289;SDS011;3686;52.678;13.252;2022-07-22T11:37:14;3.77;;;3.37;;
7289;SDS011;3686;52.678;13.252;2022-07-22T11:39:42;2.60;;;2.37;;
7289;SDS011;3686;52.678;13.252;2022-07-22T11:42:08;2.80;;;2.60;;
7289;SDS011;3686;52.678;13.252;2022-07-22T11:44:35;3.33;;;3.00;;
7289;SDS011;3686;52.678;13.252;2022-07-22T11:47:03;3.07;;;2.47;;
7289;SDS011;3686;52.678;13.252;2022-07-22T11:49:30;2.50;;;2.30;;
7289;SDS011;3686;52.678;13.252;2022-07-22T11:51:59;2.27;;;2.07;;
7289;SDS011;3686;52.678;13.252;2022-07-22T11:54:25;2.07;;;1.87;;
7289;SDS011;3686;52.678;13.252;2022-07-22T11:56:51;4.43;;;2.17;;
7289;SDS011;3686;52.678;13.252;2022-07-22T11:59:17;2.63;;;1.67;;
7289;SDS011;3686;52.678;13.252;2022-07-22T12:01:43;2.03;;;1.93;;
7289;SDS011;3686;52.678;13.252;2022-07-22T12:04:11;2.20;;;2.00;;
7289;SDS011;3686;52.678;13.252;2022-07-22T12:06:40;2.83;;;2.03;;
7289;SDS011;3686;52.678;13.252;2022-07-22T12:09:14;2.63;;;2.40;;
7289;SDS011;3686;52.678;13.252;2022-07-22T12:11:55;2.10;;;1.90;;
7289;SDS011;3686;52.678;13.252;2022-07-22T12:14:27;1.93;;;1.83;;
7289;SDS011;3686;52.678;13.252;2022-07-22T12:19:22;2.10;;;1.90;;
7289;SDS011;3686;52.678;13.252;2022-07-22T12:21:53;2.77;;;2.50;;
7289;SDS011;3686;52.678;13.252;2022-07-22T12:24:26;3.50;;;2.93;;
7289;SDS011;3686;52.678;13.252;2022-07-22T12:26:59;2.47;;;2.17;;
7289;SDS011;3686;52.678;13.252;2022-07-22T12:29:45;3.17;;;2.87;;
7289;SDS011;3686;52.678;13.252;2022-07-22T12:42:17;4.00;;;2.50;;
7289;SDS011;3686;52.678;13.252;2022-07-22T12:44:50;3.20;;;2.40;;
7289;SDS011;3686;52.678;13.252;2022-07-22T12:50:20;2.10;;;1.50;;
7289;SDS011;3686;52.678;13.252;2022-07-22T12:53:07;1.40;;;1.30;;
7289;SDS011;3686;52.678;13.252;2022-07-22T12:58:09;2.20;;;2.00;;
7289;SDS011;3686;52.678;13.252;2022-07-22T13:00:36;1.70;;;1.60;;
7289;SDS011;3686;52.678;13.252;2022-07-22T13:03:07;1.70;;;1.60;;
7289;SDS011;3686;52.678;13.252;2022-07-22T13:05:33;1.50;;;1.40;;
7289;SDS011;3686;52.678;13.252;2022-07-22T13:08:00;1.90;;;1.40;;
7289;SDS011;3686;52.678;13.252;2022-07-22T13:10:26;1.60;;;1.50;;
7289;SDS011;3686;52.678;13.252;2022-07-22T13:12:52;1.50;;;1.40;;
7289;SDS011;3686;52.678;13.252;2022-07-22T13:15:19;1.60;;;1.50;;
7289;SDS011;3686;52.678;13.252;2022-07-22T13:17:45;1.37;;;1.27;;
7289;SDS011;3686;52.678;13.252;2022-07-22T13:20:12;1.97;;;1.40;;
7289;SDS011;3686;52.678;13.252;2022-07-22T13:22:41;1.70;;;1.40;;
7289;SDS011;3686;52.678;13.252;2022-07-22T13:25:08;1.40;;;1.30;;
7289;SDS011;3686;52.678;13.252;2022-07-22T13:27:34;1.70;;;1.50;;
7289;SDS011;3686;52.678;13.252;2022-07-22T13:29:59;1.50;;;1.40;;
7289;SDS011;3686;52.678;13.252;2022-07-22T13:32:25;1.17;;;1.07;;
7289;SDS011;3686;52.678;13.252;2022-07-22T13:34:51;1.90;;;1.33;;
7289;SDS011;3686;52.678;13.252;2022-07-22T13:37:17;1.43;;;1.33;;
7289;SDS011;3686;52.678;13.252;2022-07-22T13:39:43;2.10;;;1.40;;
7289;SDS011;3686;52.678;13.252;2022-07-22T13:42:11;1.10;;;1.00;;
7289;SDS011;3686;52.678;13.252;2022-07-22T13:44:37;1.83;;;1.00;;
7289;SDS011;3686;52.678;13.252;2022-07-22T13:47:04;0.73;;;0.73;;
7289;SDS011;3686;52.678;13.252;2022-07-22T13:49:30;1.63;;;1.07;;
7289;SDS011;3686;52.678;13.252;2022-07-22T13:51:55;1.30;;;1.20;;
7289;SDS011;3686;52.678;13.252;2022-07-22T13:54:21;1.93;;;1.27;;
7289;SDS011;3686;52.678;13.252;2022-07-22T13:56:47;0.73;;;0.73;;
7289;SDS011;3686;52.678;13.252;2022-07-22T13:59:14;1.23;;;1.17;;
7289;SDS011;3686;52.678;13.252;2022-07-22T14:01:40;1.00;;;1.00;;
7289;SDS011;3686;52.678;13.252;2022-07-22T14:04:05;1.47;;;1.10;;
7289;SDS011;3686;52.678;13.252;2022-07-22T14:06:31;0.80;;;0.80;;
7289;SDS011;3686;52.678;13.252;2022-07-22T14:08:57;1.30;;;1.20;;
7289;SDS011;3686;52.678;13.252;2022-07-22T14:11:24;0.73;;;0.73;;
7289;SDS011;3686;52.678;13.252;2022-07-22T14:13:49;1.20;;;1.10;;
7289;SDS011;3686;52.678;13.252;2022-07-22T14:16:15;1.10;;;0.97;;
7289;SDS011;3686;52.678;13.252;2022-07-22T14:19:06;1.23;;;1.13;;
7289;SDS011;3686;52.678;13.252;2022-07-22T14:21:37;1.67;;;1.17;;
7289;SDS011;3686;52.678;13.252;2022-07-22T14:24:04;2.80;;;1.07;;
7289;SDS011;3686;52.678;13.252;2022-07-22T14:26:32;1.03;;;0.97;;
7289;SDS011;3686;52.678;13.252;2022-07-22T14:28:58;0.80;;;0.80;;
7289;SDS011;3686;52.678;13.252;2022-07-22T14:31:24;1.03;;;0.93;;
7289;SDS011;3686;52.678;13.252;2022-07-22T14:33:50;0.80;;;0.80;;
7289;SDS011;3686;52.678;13.252;2022-07-22T14:36:16;1.10;;;0.90;;
7289;SDS011;3686;52.678;13.252;2022-07-22T14:38:43;0.90;;;0.90;;
7289;SDS011;3686;52.678;13.252;2022-07-22T14:41:08;1.10;;;0.93;;
7289;SDS011;3686;52.678;13.252;2022-07-22T14:43:35;0.93;;;0.93;;
7289;SDS011;3686;52.678;13.252;2022-07-22T14:46:01;1.20;;;0.97;;
7289;SDS011;3686;52.678;13.252;2022-07-22T14:48:29;0.97;;;0.80;;
7289;SDS011;3686;52.678;13.252;2022-07-22T14:50:56;0.97;;;0.97;;
7289;SDS011;3686;52.678;13.252;2022-07-22T14:53:22;1.30;;;1.20;;
7289;SDS011;3686;52.678;13.252;2022-07-22T14:55:49;1.00;;;1.00;;
7289;SDS011;3686;52.678;13.252;2022-07-22T14:58:14;1.00;;;1.00;;
7289;SDS011;3686;52.678;13.252;2022-07-22T15:00:40;1.33;;;1.23;;
7289;SDS011;3686;52.678;13.252;2022-07-22T15:03:06;1.27;;;0.97;;
7289;SDS011;3686;52.678;13.252;2022-07-22T15:05:31;1.97;;;1.10;;
7289;SDS011;3686;52.678;13.252;2022-07-22T15:07:57;1.77;;;1.07;;
7289;SDS011;3686;52.678;13.252;2022-07-22T15:10:23;0.87;;;0.87;;
7289;SDS011;3686;52.678;13.252;2022-07-22T15:12:48;1.37;;;1.27;;
7289;SDS011;3686;52.678;13.252;2022-07-22T15:15:14;1.33;;;1.20;;
7289;SDS011;3686;52.678;13.252;2022-07-22T15:17:40;1.40;;;1.30;;
7289;SDS011;3686;52.678;13.252;2022-07-22T15:20:08;1.03;;;1.00;;
7289;SDS011;3686;52.678;13.252;2022-07-22T15:22:34;1.33;;;1.23;;